sensor_id;sensor_type;location;lat;lon;timestamp;temperature;humidity
11846;DHT22;5982;37.494;-8.758;2023-10-08T00:00:46;18.70;99.90
11846;DHT22;5982;37.494;-8.758;2023-10-08T00:03:15;18.70;99.90
11846;DHT22;5982;37.494;-8.758;2023-10-08T00:05:43;18.80;99.90
11846;DHT22;5982;37.494;-8.758;2023-10-08T00:08:12;18.80;99.90
11846;DHT22;5982;37.494;-8.758;2023-10-08T00:10:42;18.80;99.90
11846;DHT22;5982;37.494;-8.758;2023-10-08T00:13:10;18.80;99.90
11846;DHT22;5982;37.494;-8.758;2023-10-08T00:15:41;18.90;99.90
11846;DHT22;5982;37.494;-8.758;2023-10-08T00:18:17;18.90;99.90
11846;DHT22;5982;37.494;-8.758;2023-10-08T00:20:44;18.90;99.90
11846;DHT22;5982;37.494;-8.758;2023-10-08T00:23:20;18.90;99.90
11846;DHT22;5982;37.494;-8.758;2023-10-08T00:25:51;18.90;99.90
11846;DHT22;5982;37.494;-8.758;2023-10-08T00:28:18;18.90;99.90
11846;DHT22;5982;37.494;-8.758;2023-10-08T00:30:46;18.90;99.90
11846;DHT22;5982;37.494;-8.758;2023-10-08T00:33:16;18.90;99.90
11846;DHT22;5982;37.494;-8.758;2023-10-08T00:35:44;18.80;99.90
11846;DHT22;5982;37.494;-8.758;2023-10-08T00:38:12;18.80;99.90
11846;DHT22;5982;37.494;-8.758;2023-10-08T00:40:43;18.90;99.90
11846;DHT22;5982;37.494;-8.758;2023-10-08T00:45:57;18.90;99.90
11846;DHT22;5982;37.494;-8.758;2023-10-08T00:48:27;19.00;99.90
11846;DHT22;5982;37.494;-8.758;2023-10-08T00:51:01;19.10;99.90
11846;DHT22;5982;37.494;-8.758;2023-10-08T00:53:42;19.20;99.90
11846;DHT22;5982;37.494;-8.758;2023-10-08T00:56:10;19.30;99.90
11846;DHT22;5982;37.494;-8.758;2023-10-08T00:58:44;19.30;99.90
11846;DHT22;5982;37.494;-8.758;2023-10-08T01:01:14;19.30;99.90
11846;DHT22;5982;37.494;-8.758;2023-10-08T01:03:44;19.30;99.90
11846;DHT22;5982;37.494;-8.758;2023-10-08T01:06:15;19.30;99.90
11846;DHT22;5982;37.494;-8.758;2023-10-08T01:08:45;19.40;99.90
11846;DHT22;5982;37.494;-8.758;2023-10-08T01:11:18;19.50;99.90
11846;DHT22;5982;37.494;-8.758;2023-10-08T01:13:52;19.50;99.90
11846;DHT22;5982;37.494;-8.758;2023-10-08T01:16:20;19.70;99.90
11846;DHT22;5982;37.494;-8.758;2023-10-08T01:18:50;19.90;99.90
11846;DHT22;5982;37.494;-8.758;2023-10-08T01:21:19;19.90;99.90
11846;DHT22;5982;37.494;-8.758;2023-10-08T01:24:06;19.90;99.90
11846;DHT22;5982;37.494;-8.758;2023-10-08T01:26:35;19.80;99.90
11846;DHT22;5982;37.494;-8.758;2023-10-08T01:29:04;19.80;99.90
11846;DHT22;5982;37.494;-8.758;2023-10-08T01:31:44;19.80;99.90
11846;DHT22;5982;37.494;-8.758;2023-10-08T01:34:13;20.00;99.90
11846;DHT22;5982;37.494;-8.758;2023-10-08T01:36:43;20.00;99.90
11846;DHT22;5982;37.494;-8.758;2023-10-08T01:39:12;20.20;99.90
11846;DHT22;5982;37.494;-8.758;2023-10-08T01:41:42;20.20;99.90
11846;DHT22;5982;37.494;-8.758;2023-10-08T01:44:12;20.10;99.90
11846;DHT22;5982;37.494;-8.758;2023-10-08T01:46:40;20.00;99.90
11846;DHT22;5982;37.494;-8.758;2023-10-08T01:49:07;20.00;99.90
11846;DHT22;5982;37.494;-8.758;2023-10-08T01:51:40;20.00;99.90
11846;DHT22;5982;37.494;-8.758;2023-10-08T01:54:13;20.00;99.90
11846;DHT22;5982;37.494;-8.758;2023-10-08T01:56:43;20.00;99.90
11846;DHT22;5982;37.494;-8.758;2023-10-08T01:59:11;19.90;99.90
11846;DHT22;5982;37.494;-8.758;2023-10-08T02:01:41;19.90;99.90
11846;DHT22;5982;37.494;-8.758;2023-10-08T02:04:10;19.90;99.90
11846;DHT22;5982;37.494;-8.758;2023-10-08T02:06:38;19.70;99.90
11846;DHT22;5982;37.494;-8.758;2023-10-08T02:09:06;19.60;99.90
11846;DHT22;5982;37.494;-8.758;2023-10-08T02:11:46;19.60;99.90
11846;DHT22;5982;37.494;-8.758;2023-10-08T02:14:15;19.50;99.90
11846;DHT22;5982;37.494;-8.758;2023-10-08T02:16:44;19.40;99.90
11846;DHT22;5982;37.494;-8.758;2023-10-08T02:19:11;19.40;99.90
11846;DHT22;5982;37.494;-8.758;2023-10-08T02:21:44;19.40;99.90
11846;DHT22;5982;37.494;-8.758;2023-10-08T02:24:12;19.40;99.90
11846;DHT22;5982;37.494;-8.758;2023-10-08T02:26:40;19.40;99.90
11846;DHT22;5982;37.494;-8.758;2023-10-08T02:29:10;19.40;99.90
11846;DHT22;5982;37.494;-8.758;2023-10-08T02:31:38;19.30;99.90
11846;DHT22;5982;37.494;-8.758;2023-10-08T02:34:06;19.40;99.90
11846;DHT22;5982;37.494;-8.758;2023-10-08T02:36:34;19.30;99.90
11846;DHT22;5982;37.494;-8.758;2023-10-08T02:39:03;19.30;99.90
11846;DHT22;5982;37.494;-8.758;2023-10-08T02:41:39;19.30;99.90
11846;DHT22;5982;37.494;-8.758;2023-10-08T02:44:09;19.30;99.90
11846;DHT22;5982;37.494;-8.758;2023-10-08T02:46:39;19.30;99.90
11846;DHT22;5982;37.494;-8.758;2023-10-08T02:49:08;19.30;99.90
11846;DHT22;5982;37.494;-8.758;2023-10-08T02:51:38;19.30;99.90
11846;DHT22;5982;37.494;-8.758;2023-10-08T02:54:07;19.20;99.90
11846;DHT22;5982;37.494;-8.758;2023-10-08T02:56:42;19.20;99.90
11846;DHT22;5982;37.494;-8.758;2023-10-08T02:59:13;19.10;99.90
11846;DHT22;5982;37.494;-8.758;2023-10-08T03:01:41;19.10;99.90
11846;DHT22;5982;37.494;-8.758;2023-10-08T03:04:09;19.10;99.90
11846;DHT22;5982;37.494;-8.758;2023-10-08T03:06:44;19.20;99.90
11846;DHT22;5982;37.494;-8.758;2023-10-08T03:09:16;19.30;99.90
11846;DHT22;5982;37.494;-8.758;2023-10-08T03:11:47;19.40;99.90
11846;DHT22;5982;37.494;-8.758;2023-10-08T03:14:16;19.60;99.90
11846;DHT22;5982;37.494;-8.758;2023-10-08T03:16:49;19.70;99.90
11846;DHT22;5982;37.494;-8.758;2023-10-08T03:19:17;19.90;99.90
11846;DHT22;5982;37.494;-8.758;2023-10-08T03:21:49;20.10;99.90
11846;DHT22;5982;37.494;-8.758;2023-10-08T03:24:22;20.30;99.90
11846;DHT22;5982;37.494;-8.758;2023-10-08T03:27:05;20.40;99.90
11846;DHT22;5982;37.494;-8.758;2023-10-08T03:29:39;20.50;99.90
11846;DHT22;5982;37.494;-8.758;2023-10-08T03:32:09;20.50;99.90
11846;DHT22;5982;37.494;-8.758;2023-10-08T03:34:45;20.60;99.90
11846;DHT22;5982;37.494;-8.758;2023-10-08T03:37:14;20.60;99.90
11846;DHT22;5982;37.494;-8.758;2023-10-08T03:39:47;20.60;99.90
11846;DHT22;5982;37.494;-8.758;2023-10-08T03:42:33;20.60;99.90
11846;DHT22;5982;37.494;-8.758;2023-10-08T03:45:07;20.50;99.90
11846;DHT22;5982;37.494;-8.758;2023-10-08T03:47:48;20.60;99.90
11846;DHT22;5982;37.494;-8.758;2023-10-08T03:50:29;20.50;99.90
11846;DHT22;5982;37.494;-8.758;2023-10-08T03:53:06;20.50;99.90
11846;DHT22;5982;37.494;-8.758;2023-10-08T03:55:37;20.50;99.90
11846;DHT22;5982;37.494;-8.758;2023-10-08T03:58:07;20.60;99.90
11846;DHT22;5982;37.494;-8.758;2023-10-08T04:00:42;20.60;99.90
11846;DHT22;5982;37.494;-8.758;2023-10-08T04:03:11;20.50;99.90
11846;DHT22;5982;37.494;-8.758;2023-10-08T04:05:49;20.50;99.90
11846;DHT22;5982;37.494;-8.758;2023-10-08T04:08:29;20.40;99.90
11846;DHT22;5982;37.494;-8.758;2023-10-08T04:11:09;20.40;99.90
11846;DHT22;5982;37.494;-8.758;2023-10-08T04:13:53;20.50;99.90
11846;DHT22;5982;37.494;-8.758;2023-10-08T04:16:22;20.50;99.90
11846;DHT22;5982;37.494;-8.758;2023-10-08T04:18:53;20.40;99.90
11846;DHT22;5982;37.494;-8.758;2023-10-08T04:21:21;20.40;99.90
11846;DHT22;5982;37.494;-8.758;2023-10-08T04:23:53;20.30;99.90
11846;DHT22;5982;37.494;-8.758;2023-10-08T04:26:23;20.30;99.90
11846;DHT22;5982;37.494;-8.758;2023-10-08T04:28:51;20.40;99.90
11846;DHT22;5982;37.494;-8.758;2023-10-08T04:31:24;20.40;99.90
11846;DHT22;5982;37.494;-8.758;2023-10-08T04:33:53;20.40;99.90
11846;DHT22;5982;37.494;-8.758;2023-10-08T04:36:26;20.50;99.90
11846;DHT22;5982;37.494;-8.758;2023-10-08T04:38:54;20.50;99.90
11846;DHT22;5982;37.494;-8.758;2023-10-08T04:41:27;20.60;99.90
11846;DHT22;5982;37.494;-8.758;2023-10-08T04:43:55;20.60;99.90
11846;DHT22;5982;37.494;-8.758;2023-10-08T04:46:24;20.60;99.90
11846;DHT22;5982;37.494;-8.758;2023-10-08T04:49:12;20.70;99.90
11846;DHT22;5982;37.494;-8.758;2023-10-08T04:51:53;20.80;99.90
11846;DHT22;5982;37.494;-8.758;2023-10-08T04:54:24;20.80;99.90
11846;DHT22;5982;37.494;-8.758;2023-10-08T04:56:56;20.80;99.90
11846;DHT22;5982;37.494;-8.758;2023-10-08T04:59:25;20.90;99.90
11846;DHT22;5982;37.494;-8.758;2023-10-08T05:02:00;20.90;99.90
11846;DHT22;5982;37.494;-8.758;2023-10-08T05:04:45;20.90;99.90
11846;DHT22;5982;37.494;-8.758;2023-10-08T05:07:22;20.80;99.90
11846;DHT22;5982;37.494;-8.758;2023-10-08T05:10:04;20.80;99.90
11846;DHT22;5982;37.494;-8.758;2023-10-08T05:12:57;20.80;99.90
11846;DHT22;5982;37.494;-8.758;2023-10-08T05:15:41;20.90;99.90
11846;DHT22;5982;37.494;-8.758;2023-10-08T05:18:32;20.90;99.90
11846;DHT22;5982;37.494;-8.758;2023-10-08T05:21:17;20.90;99.90
11846;DHT22;5982;37.494;-8.758;2023-10-08T05:23:54;20.80;99.90
11846;DHT22;5982;37.494;-8.758;2023-10-08T05:26:38;20.70;99.90
11846;DHT22;5982;37.494;-8.758;2023-10-08T05:29:10;20.60;99.90
11846;DHT22;5982;37.494;-8.758;2023-10-08T05:32:16;20.40;99.90
11846;DHT22;5982;37.494;-8.758;2023-10-08T05:35:06;20.30;99.90
11846;DHT22;5982;37.494;-8.758;2023-10-08T05:37:51;20.30;99.90
11846;DHT22;5982;37.494;-8.758;2023-10-08T05:40:38;20.30;99.90
11846;DHT22;5982;37.494;-8.758;2023-10-08T05:43:30;20.30;99.90
11846;DHT22;5982;37.494;-8.758;2023-10-08T05:46:16;20.40;99.90
11846;DHT22;5982;37.494;-8.758;2023-10-08T05:49:00;20.50;99.90
11846;DHT22;5982;37.494;-8.758;2023-10-08T05:51:52;20.50;99.90
11846;DHT22;5982;37.494;-8.758;2023-10-08T05:54:50;20.50;99.90
11846;DHT22;5982;37.494;-8.758;2023-10-08T05:57:35;20.50;99.90
11846;DHT22;5982;37.494;-8.758;2023-10-08T06:00:06;20.50;99.90
11846;DHT22;5982;37.494;-8.758;2023-10-08T06:02:57;20.60;99.90
11846;DHT22;5982;37.494;-8.758;2023-10-08T06:05:36;20.70;99.90
11846;DHT22;5982;37.494;-8.758;2023-10-08T06:08:14;20.80;99.90
11846;DHT22;5982;37.494;-8.758;2023-10-08T06:10:47;20.90;99.90
11846;DHT22;5982;37.494;-8.758;2023-10-08T06:13:22;21.00;99.90
11846;DHT22;5982;37.494;-8.758;2023-10-08T06:16:10;21.10;99.90
11846;DHT22;5982;37.494;-8.758;2023-10-08T06:18:56;21.30;99.90
11846;DHT22;5982;37.494;-8.758;2023-10-08T06:21:23;21.30;99.90
11846;DHT22;5982;37.494;-8.758;2023-10-08T06:23:53;21.20;99.90
11846;DHT22;5982;37.494;-8.758;2023-10-08T06:26:22;21.30;99.90
11846;DHT22;5982;37.494;-8.758;2023-10-08T06:28:50;21.30;99.90
11846;DHT22;5982;37.494;-8.758;2023-10-08T06:31:24;21.30;99.90
11846;DHT22;5982;37.494;-8.758;2023-10-08T06:33:53;21.30;99.90
11846;DHT22;5982;37.494;-8.758;2023-10-08T06:36:21;21.30;99.90
11846;DHT22;5982;37.494;-8.758;2023-10-08T06:38:50;21.30;99.90
11846;DHT22;5982;37.494;-8.758;2023-10-08T06:41:19;21.30;99.90
11846;DHT22;5982;37.494;-8.758;2023-10-08T06:43:54;21.40;99.90
11846;DHT22;5982;37.494;-8.758;2023-10-08T06:46:28;21.50;99.90
11846;DHT22;5982;37.494;-8.758;2023-10-08T06:48:58;21.80;99.90
11846;DHT22;5982;37.494;-8.758;2023-10-08T06:51:25;21.90;99.90
11846;DHT22;5982;37.494;-8.758;2023-10-08T06:53:56;22.10;99.90
11846;DHT22;5982;37.494;-8.758;2023-10-08T06:56:28;22.30;99.90
11846;DHT22;5982;37.494;-8.758;2023-10-08T06:58:57;22.40;99.90
11846;DHT22;5982;37.494;-8.758;2023-10-08T07:01:24;22.70;99.90
11846;DHT22;5982;37.494;-8.758;2023-10-08T07:04:04;22.70;99.90
11846;DHT22;5982;37.494;-8.758;2023-10-08T07:06:32;22.70;99.90
11846;DHT22;5982;37.494;-8.758;2023-10-08T07:09:03;22.70;99.90
11846;DHT22;5982;37.494;-8.758;2023-10-08T07:11:33;22.60;99.90
11846;DHT22;5982;37.494;-8.758;2023-10-08T07:14:04;22.50;99.90
11846;DHT22;5982;37.494;-8.758;2023-10-08T07:16:32;22.50;99.90
11846;DHT22;5982;37.494;-8.758;2023-10-08T07:19:00;22.60;99.90
11846;DHT22;5982;37.494;-8.758;2023-10-08T07:21:31;23.20;99.90
11846;DHT22;5982;37.494;-8.758;2023-10-08T07:24:10;23.40;99.90
11846;DHT22;5982;37.494;-8.758;2023-10-08T07:26:42;23.50;99.90
11846;DHT22;5982;37.494;-8.758;2023-10-08T07:29:13;23.70;99.90
11846;DHT22;5982;37.494;-8.758;2023-10-08T07:31:42;23.90;99.90
11846;DHT22;5982;37.494;-8.758;2023-10-08T07:34:14;24.30;99.90
11846;DHT22;5982;37.494;-8.758;2023-10-08T07:36:44;24.60;99.90
11846;DHT22;5982;37.494;-8.758;2023-10-08T07:39:12;25.00;99.90
11846;DHT22;5982;37.494;-8.758;2023-10-08T07:41:53;25.30;99.90
11846;DHT22;5982;37.494;-8.758;2023-10-08T07:44:21;25.70;99.90
11846;DHT22;5982;37.494;-8.758;2023-10-08T07:46:49;26.10;99.90
11846;DHT22;5982;37.494;-8.758;2023-10-08T07:49:17;26.40;99.90
11846;DHT22;5982;37.494;-8.758;2023-10-08T07:51:44;26.80;99.90
11846;DHT22;5982;37.494;-8.758;2023-10-08T07:54:17;27.30;99.90
11846;DHT22;5982;37.494;-8.758;2023-10-08T07:56:46;27.50;99.90
11846;DHT22;5982;37.494;-8.758;2023-10-08T07:59:16;27.70;99.90
11846;DHT22;5982;37.494;-8.758;2023-10-08T08:01:44;27.90;99.90
11846;DHT22;5982;37.494;-8.758;2023-10-08T08:04:13;28.10;99.90
11846;DHT22;5982;37.494;-8.758;2023-10-08T08:06:47;28.40;99.90
11846;DHT22;5982;37.494;-8.758;2023-10-08T08:09:16;28.70;99.90
11846;DHT22;5982;37.494;-8.758;2023-10-08T08:11:45;29.00;99.90
11846;DHT22;5982;37.494;-8.758;2023-10-08T08:14:14;29.20;99.90
11846;DHT22;5982;37.494;-8.758;2023-10-08T08:16:43;29.40;99.90
11846;DHT22;5982;37.494;-8.758;2023-10-08T08:19:13;29.50;99.90
11846;DHT22;5982;37.494;-8.758;2023-10-08T08:21:43;29.70;99.90
11846;DHT22;5982;37.494;-8.758;2023-10-08T08:24:12;29.80;99.90
11846;DHT22;5982;37.494;-8.758;2023-10-08T08:26:54;29.90;99.70
11846;DHT22;5982;37.494;-8.758;2023-10-08T08:29:38;30.10;99.90
11846;DHT22;5982;37.494;-8.758;2023-10-08T08:32:11;30.20;98.70
11846;DHT22;5982;37.494;-8.758;2023-10-08T08:34:41;30.30;98.70
11846;DHT22;5982;37.494;-8.758;2023-10-08T08:37:09;30.50;99.00
11846;DHT22;5982;37.494;-8.758;2023-10-08T08:39:38;30.70;98.30
11846;DHT22;5982;37.494;-8.758;2023-10-08T08:42:07;30.80;98.40
11846;DHT22;5982;37.494;-8.758;2023-10-08T08:44:36;31.00;97.80
11846;DHT22;5982;37.494;-8.758;2023-10-08T08:47:11;31.10;98.10
11846;DHT22;5982;37.494;-8.758;2023-10-08T08:49:43;31.30;97.70
11846;DHT22;5982;37.494;-8.758;2023-10-08T08:52:11;31.30;97.50
11846;DHT22;5982;37.494;-8.758;2023-10-08T08:54:39;31.50;97.00
11846;DHT22;5982;37.494;-8.758;2023-10-08T08:57:07;31.60;97.00
11846;DHT22;5982;37.494;-8.758;2023-10-08T08:59:41;31.80;96.50
11846;DHT22;5982;37.494;-8.758;2023-10-08T09:02:18;31.80;96.40
11846;DHT22;5982;37.494;-8.758;2023-10-08T09:04:47;31.90;96.30
11846;DHT22;5982;37.494;-8.758;2023-10-08T09:07:19;32.10;95.80
11846;DHT22;5982;37.494;-8.758;2023-10-08T09:09:48;32.20;96.10
11846;DHT22;5982;37.494;-8.758;2023-10-08T09:12:16;32.20;95.60
11846;DHT22;5982;37.494;-8.758;2023-10-08T09:14:48;32.40;99.50
11846;DHT22;5982;37.494;-8.758;2023-10-08T09:17:16;32.30;99.80
11846;DHT22;5982;37.494;-8.758;2023-10-08T09:19:45;32.10;99.80
11846;DHT22;5982;37.494;-8.758;2023-10-08T09:22:12;32.00;99.90
11846;DHT22;5982;37.494;-8.758;2023-10-08T09:24:45;31.80;99.40
11846;DHT22;5982;37.494;-8.758;2023-10-08T09:27:12;31.80;99.70
11846;DHT22;5982;37.494;-8.758;2023-10-08T09:29:41;31.70;99.70
11846;DHT22;5982;37.494;-8.758;2023-10-08T09:32:11;31.70;99.80
11846;DHT22;5982;37.494;-8.758;2023-10-08T09:34:48;31.80;99.90
11846;DHT22;5982;37.494;-8.758;2023-10-08T09:37:17;31.80;99.50
11846;DHT22;5982;37.494;-8.758;2023-10-08T09:39:47;31.80;99.30
11846;DHT22;5982;37.494;-8.758;2023-10-08T09:42:17;31.90;98.90
11846;DHT22;5982;37.494;-8.758;2023-10-08T09:44:48;31.80;98.50
11846;DHT22;5982;37.494;-8.758;2023-10-08T09:47:19;31.80;99.00
11846;DHT22;5982;37.494;-8.758;2023-10-08T09:49:51;31.70;98.90
11846;DHT22;5982;37.494;-8.758;2023-10-08T09:52:24;31.70;99.30
11846;DHT22;5982;37.494;-8.758;2023-10-08T09:54:59;31.70;98.70
11846;DHT22;5982;37.494;-8.758;2023-10-08T09:57:29;31.70;99.10
11846;DHT22;5982;37.494;-8.758;2023-10-08T09:59:58;31.70;98.70
11846;DHT22;5982;37.494;-8.758;2023-10-08T10:02:28;31.70;98.70
11846;DHT22;5982;37.494;-8.758;2023-10-08T10:04:56;31.80;99.20
11846;DHT22;5982;37.494;-8.758;2023-10-08T10:07:26;31.80;99.90
11846;DHT22;5982;37.494;-8.758;2023-10-08T10:09:55;31.80;99.60
11846;DHT22;5982;37.494;-8.758;2023-10-08T10:12:25;31.70;99.80
11846;DHT22;5982;37.494;-8.758;2023-10-08T10:14:54;31.80;99.60
11846;DHT22;5982;37.494;-8.758;2023-10-08T10:17:23;31.90;99.60
11846;DHT22;5982;37.494;-8.758;2023-10-08T10:19:55;32.00;99.50
11846;DHT22;5982;37.494;-8.758;2023-10-08T10:22:26;31.90;99.40
11846;DHT22;5982;37.494;-8.758;2023-10-08T10:24:54;31.90;99.60
11846;DHT22;5982;37.494;-8.758;2023-10-08T10:27:23;31.80;99.70
11846;DHT22;5982;37.494;-8.758;2023-10-08T10:29:53;31.70;99.30
11846;DHT22;5982;37.494;-8.758;2023-10-08T10:32:34;31.60;99.50
11846;DHT22;5982;37.494;-8.758;2023-10-08T10:35:03;31.60;99.30
11846;DHT22;5982;37.494;-8.758;2023-10-08T10:37:37;31.70;98.80
11846;DHT22;5982;37.494;-8.758;2023-10-08T10:40:08;31.70;99.00
11846;DHT22;5982;37.494;-8.758;2023-10-08T10:42:38;31.80;98.90
11846;DHT22;5982;37.494;-8.758;2023-10-08T10:45:13;31.80;98.90
11846;DHT22;5982;37.494;-8.758;2023-10-08T10:48:01;31.80;98.60
11846;DHT22;5982;37.494;-8.758;2023-10-08T10:50:40;31.90;99.00
11846;DHT22;5982;37.494;-8.758;2023-10-08T10:53:14;32.00;98.30
11846;DHT22;5982;37.494;-8.758;2023-10-08T10:55:45;32.00;98.50
11846;DHT22;5982;37.494;-8.758;2023-10-08T10:58:24;32.00;98.60
11846;DHT22;5982;37.494;-8.758;2023-10-08T11:00:53;32.10;98.70
11846;DHT22;5982;37.494;-8.758;2023-10-08T11:03:24;32.20;98.80
11846;DHT22;5982;37.494;-8.758;2023-10-08T11:05:57;32.40;98.10
11846;DHT22;5982;37.494;-8.758;2023-10-08T11:08:31;32.40;98.40
11846;DHT22;5982;37.494;-8.758;2023-10-08T11:11:01;32.50;97.70
11846;DHT22;5982;37.494;-8.758;2023-10-08T11:13:32;32.70;98.00
11846;DHT22;5982;37.494;-8.758;2023-10-08T11:16:05;32.80;96.80
11846;DHT22;5982;37.494;-8.758;2023-10-08T11:18:34;32.80;97.40
11846;DHT22;5982;37.494;-8.758;2023-10-08T11:21:09;32.90;97.10
11846;DHT22;5982;37.494;-8.758;2023-10-08T11:23:50;33.00;97.50
11846;DHT22;5982;37.494;-8.758;2023-10-08T11:26:24;33.00;97.20
11846;DHT22;5982;37.494;-8.758;2023-10-08T11:28:59;33.20;96.60
11846;DHT22;5982;37.494;-8.758;2023-10-08T11:31:28;33.10;97.20
11846;DHT22;5982;37.494;-8.758;2023-10-08T11:33:59;33.20;96.60
11846;DHT22;5982;37.494;-8.758;2023-10-08T11:36:29;33.20;97.80
11846;DHT22;5982;37.494;-8.758;2023-10-08T11:39:09;33.30;97.00
11846;DHT22;5982;37.494;-8.758;2023-10-08T11:41:54;33.30;96.00
11846;DHT22;5982;37.494;-8.758;2023-10-08T11:44:22;33.40;96.50
11846;DHT22;5982;37.494;-8.758;2023-10-08T11:46:55;33.60;96.60
11846;DHT22;5982;37.494;-8.758;2023-10-08T11:49:30;33.80;95.50
11846;DHT22;5982;37.494;-8.758;2023-10-08T11:52:03;33.90;95.40
11846;DHT22;5982;37.494;-8.758;2023-10-08T11:54:31;34.10;95.10
11846;DHT22;5982;37.494;-8.758;2023-10-08T11:56:59;34.10;95.40
11846;DHT22;5982;37.494;-8.758;2023-10-08T11:59:28;34.20;95.80
11846;DHT22;5982;37.494;-8.758;2023-10-08T12:01:57;34.30;96.00
11846;DHT22;5982;37.494;-8.758;2023-10-08T12:04:25;34.40;95.90
11846;DHT22;5982;37.494;-8.758;2023-10-08T12:06:55;34.50;96.10
11846;DHT22;5982;37.494;-8.758;2023-10-08T12:09:24;34.50;95.30
11846;DHT22;5982;37.494;-8.758;2023-10-08T12:11:53;34.40;95.20
11846;DHT22;5982;37.494;-8.758;2023-10-08T12:14:22;34.30;95.40
11846;DHT22;5982;37.494;-8.758;2023-10-08T12:16:55;34.30;95.10
11846;DHT22;5982;37.494;-8.758;2023-10-08T12:19:25;34.20;95.60
11846;DHT22;5982;37.494;-8.758;2023-10-08T12:21:58;34.20;95.60
11846;DHT22;5982;37.494;-8.758;2023-10-08T12:24:29;34.20;95.30
11846;DHT22;5982;37.494;-8.758;2023-10-08T12:26:57;34.20;95.30
11846;DHT22;5982;37.494;-8.758;2023-10-08T12:29:25;34.10;96.60
11846;DHT22;5982;37.494;-8.758;2023-10-08T12:31:54;34.10;97.40
11846;DHT22;5982;37.494;-8.758;2023-10-08T12:34:22;33.90;97.50
11846;DHT22;5982;37.494;-8.758;2023-10-08T12:36:49;33.80;97.90
11846;DHT22;5982;37.494;-8.758;2023-10-08T12:39:17;33.60;97.80
11846;DHT22;5982;37.494;-8.758;2023-10-08T12:41:50;33.50;97.50
11846;DHT22;5982;37.494;-8.758;2023-10-08T12:44:19;33.40;97.70
11846;DHT22;5982;37.494;-8.758;2023-10-08T12:46:47;33.30;98.70
11846;DHT22;5982;37.494;-8.758;2023-10-08T12:49:15;33.40;99.00
11846;DHT22;5982;37.494;-8.758;2023-10-08T12:51:42;33.30;99.10
11846;DHT22;5982;37.494;-8.758;2023-10-08T12:54:11;33.30;98.30
11846;DHT22;5982;37.494;-8.758;2023-10-08T12:56:47;33.40;98.30
11846;DHT22;5982;37.494;-8.758;2023-10-08T12:59:16;33.20;97.60
11846;DHT22;5982;37.494;-8.758;2023-10-08T13:01:47;33.10;98.50
11846;DHT22;5982;37.494;-8.758;2023-10-08T13:04:17;33.10;97.70
11846;DHT22;5982;37.494;-8.758;2023-10-08T13:06:51;33.10;98.00
11846;DHT22;5982;37.494;-8.758;2023-10-08T13:09:22;32.90;97.40
11846;DHT22;5982;37.494;-8.758;2023-10-08T13:11:50;32.80;98.40
11846;DHT22;5982;37.494;-8.758;2023-10-08T13:14:19;32.70;98.20
11846;DHT22;5982;37.494;-8.758;2023-10-08T13:16:48;32.60;98.60
11846;DHT22;5982;37.494;-8.758;2023-10-08T13:19:19;32.50;98.40
11846;DHT22;5982;37.494;-8.758;2023-10-08T13:21:49;32.40;98.20
11846;DHT22;5982;37.494;-8.758;2023-10-08T13:24:18;32.50;99.10
11846;DHT22;5982;37.494;-8.758;2023-10-08T13:26:46;32.40;98.10
11846;DHT22;5982;37.494;-8.758;2023-10-08T13:29:14;32.30;98.60
11846;DHT22;5982;37.494;-8.758;2023-10-08T13:31:45;32.40;99.10
11846;DHT22;5982;37.494;-8.758;2023-10-08T13:34:13;32.30;98.50
11846;DHT22;5982;37.494;-8.758;2023-10-08T13:36:41;32.10;97.70
11846;DHT22;5982;37.494;-8.758;2023-10-08T13:39:12;32.00;98.90
11846;DHT22;5982;37.494;-8.758;2023-10-08T13:41:43;32.10;98.80
11846;DHT22;5982;37.494;-8.758;2023-10-08T13:44:13;32.20;98.70
11846;DHT22;5982;37.494;-8.758;2023-10-08T13:46:41;32.30;97.80
11846;DHT22;5982;37.494;-8.758;2023-10-08T13:49:15;32.30;98.20
11846;DHT22;5982;37.494;-8.758;2023-10-08T13:51:43;32.40;98.30
11846;DHT22;5982;37.494;-8.758;2023-10-08T13:54:12;32.40;97.70
11846;DHT22;5982;37.494;-8.758;2023-10-08T13:56:40;32.40;97.40
11846;DHT22;5982;37.494;-8.758;2023-10-08T13:59:13;32.40;97.60
11846;DHT22;5982;37.494;-8.758;2023-10-08T14:01:43;32.50;98.00
11846;DHT22;5982;37.494;-8.758;2023-10-08T14:04:16;32.40;97.50
11846;DHT22;5982;37.494;-8.758;2023-10-08T14:06:45;32.40;98.00
11846;DHT22;5982;37.494;-8.758;2023-10-08T14:09:17;32.40;98.00
11846;DHT22;5982;37.494;-8.758;2023-10-08T14:11:48;32.50;98.10
11846;DHT22;5982;37.494;-8.758;2023-10-08T14:14:18;32.30;97.60
11846;DHT22;5982;37.494;-8.758;2023-10-08T14:16:49;32.10;97.70
11846;DHT22;5982;37.494;-8.758;2023-10-08T14:19:19;32.00;98.20
11846;DHT22;5982;37.494;-8.758;2023-10-08T14:21:54;32.00;98.70
11846;DHT22;5982;37.494;-8.758;2023-10-08T14:24:28;32.00;99.90
11846;DHT22;5982;37.494;-8.758;2023-10-08T14:26:58;32.10;99.40
11846;DHT22;5982;37.494;-8.758;2023-10-08T14:29:28;32.00;99.90
11846;DHT22;5982;37.494;-8.758;2023-10-08T14:31:59;31.80;99.90
11846;DHT22;5982;37.494;-8.758;2023-10-08T14:34:28;31.80;99.90
11846;DHT22;5982;37.494;-8.758;2023-10-08T14:37:24;31.70;99.90
11846;DHT22;5982;37.494;-8.758;2023-10-08T14:40:09;31.70;99.90
11846;DHT22;5982;37.494;-8.758;2023-10-08T14:42:54;31.60;99.90
11846;DHT22;5982;37.494;-8.758;2023-10-08T14:45:22;31.40;99.90
11846;DHT22;5982;37.494;-8.758;2023-10-08T14:47:54;31.30;99.90
11846;DHT22;5982;37.494;-8.758;2023-10-08T14:50:22;31.20;99.90
11846;DHT22;5982;37.494;-8.758;2023-10-08T14:52:54;31.10;99.90
11846;DHT22;5982;37.494;-8.758;2023-10-08T14:55:22;31.10;99.90
11846;DHT22;5982;37.494;-8.758;2023-10-08T14:57:50;31.10;99.90
11846;DHT22;5982;37.494;-8.758;2023-10-08T15:00:18;31.10;99.90
11846;DHT22;5982;37.494;-8.758;2023-10-08T15:02:50;31.20;99.90
11846;DHT22;5982;37.494;-8.758;2023-10-08T15:05:20;31.20;99.90
11846;DHT22;5982;37.494;-8.758;2023-10-08T15:07:48;31.10;99.90
11846;DHT22;5982;37.494;-8.758;2023-10-08T15:10:18;31.10;99.90
11846;DHT22;5982;37.494;-8.758;2023-10-08T15:12:47;31.20;99.90
11846;DHT22;5982;37.494;-8.758;2023-10-08T15:15:14;31.20;99.90
11846;DHT22;5982;37.494;-8.758;2023-10-08T15:17:43;31.10;99.90
11846;DHT22;5982;37.494;-8.758;2023-10-08T15:20:12;31.10;99.90
11846;DHT22;5982;37.494;-8.758;2023-10-08T15:22:42;31.10;99.90
11846;DHT22;5982;37.494;-8.758;2023-10-08T15:25:10;31.00;99.90
11846;DHT22;5982;37.494;-8.758;2023-10-08T15:27:40;30.90;99.90
11846;DHT22;5982;37.494;-8.758;2023-10-08T15:30:10;30.90;99.90
11846;DHT22;5982;37.494;-8.758;2023-10-08T15:32:41;31.00;99.90
11846;DHT22;5982;37.494;-8.758;2023-10-08T15:35:09;31.10;99.90
11846;DHT22;5982;37.494;-8.758;2023-10-08T15:37:39;31.10;99.90
11846;DHT22;5982;37.494;-8.758;2023-10-08T15:40:08;31.10;99.90
11846;DHT22;5982;37.494;-8.758;2023-10-08T15:42:44;31.10;99.90
11846;DHT22;5982;37.494;-8.758;2023-10-08T15:45:15;31.10;99.90
11846;DHT22;5982;37.494;-8.758;2023-10-08T15:47:43;31.10;99.90
11846;DHT22;5982;37.494;-8.758;2023-10-08T15:50:11;31.10;99.90
11846;DHT22;5982;37.494;-8.758;2023-10-08T15:52:38;31.10;99.90
11846;DHT22;5982;37.494;-8.758;2023-10-08T15:55:07;31.00;99.90
11846;DHT22;5982;37.494;-8.758;2023-10-08T15:57:36;30.90;99.90
11846;DHT22;5982;37.494;-8.758;2023-10-08T16:00:07;30.90;99.90
11846;DHT22;5982;37.494;-8.758;2023-10-08T16:02:35;30.90;99.90